Aviation Digital Data Service (ADDS)

Output produced by METARs form (0010 UTC 28 August 2015)
found at http://www.aviationweather.gov/adds/metars/
 
KIPT 272354Z 00000KT 10SM OVC065 20/16 A3010 RMK AO2 SLP192 T02000156 10239 20200 53005
KIPT 272254Z 00000KT 10SM OVC070 22/13 A3009 RMK AO2 SLP188 T02170133
KIPT 272154Z 35004KT 10SM BKN060 22/12 A3009 RMK AO2 SLP187 T02220122
KIPT 272054Z VRB04KT 10SM BKN065 23/12 A3009 RMK AO2 SLP186 T02330117 56012
KIPT 271954Z 26006KT 10SM OVC060 23/12 A3009 RMK AO2 SLP188 T02280117
KIPT 271854Z 23009KT 10SM FEW041 OVC060 23/12 A3011 RMK AO2 SLP192 T02280122
KIPT 271754Z 33005KT 10SM FEW040 OVC050 22/12 A3012 RMK AO2 SLP198 T02170122 10228 20156 55003
KIPT 271654Z 27007KT 10SM OVC055 22/12 A3012 RMK AO2 SLP197 T02220117
KIPT 271554Z 33007KT 10SM OVC050 21/13 A3012 RMK AO2 SLP199 T02110128
KIPT 271454Z 25008KT 10SM SCT025 BKN048 20/13 A3013 RMK AO2 SLP201 T02000128 51005
KIPT 271401Z 32005KT 10SM FEW023 FEW030 SCT037 20/13 A3012 RMK AO2 T02000128
KIPT 271354Z 32003KT 10SM BKN021 20/13 A3012 RMK AO2 SLP199 T02000128
KIPT 271325Z 25008KT 10SM BKN021 19/13 A3012 RMK AO2 T01890128
KIPT 271254Z VRB05KT 10SM FEW018 BKN036 18/13 A3012 RMK AO2 SLP198 T01830133
KIPT 271154Z 35005KT 10SM BKN040 16/13 A3012 RMK AO2 SLP197 T01560128 10167 20144 53014
KIPT 271054Z 00000KT 10SM BKN032 OVC044 15/13 A3010 RMK AO2 SLP192 T01500128
KIPT 270954Z AUTO 30003KT 10SM FEW075 15/13 A3008 RMK AO2 SLP185 T01500133
KIPT 270854Z AUTO 27007KT 10SM FEW080 16/13 A3007 RMK AO2 SLP182 T01610133 55002
KIPT 270754Z AUTO 28005KT 10SM BKN080 16/13 A3007 RMK AO2 SLP181 T01560133
KIPT 270654Z AUTO 29005KT 10SM CLR 16/13 A3007 RMK AO2 SLP180 T01560133
KIPT 270554Z AUTO 27006KT 10SM SCT095 17/13 A3008 RMK AO2 SLP183 T01670133 10194 20167 50004
KIPT 270454Z AUTO 27005KT 10SM OVC085 18/14 A3008 RMK AO2 SLP184 T01780139 402390122
KIPT 270354Z AUTO 26007KT 10SM OVC095 18/14 A3008 RMK AO2 SLP182 T01780139
KIPT 270254Z AUTO 27007KT 10SM SCT070 OVC090 18/13 A3007 RMK AO2 SLP179 T01780133 51017
KIPT 270154Z 27007KT 10SM OVC095 18/13 A3005 RMK AO2 SLP174 T01830128
KIPT 270054Z 26009KT 10SM OVC095 19/12 A3003 RMK AO2 SLP167 T01890122
KIPT 262354Z 26011G16KT 10SM FEW050 OVC090 19/13 A3002 RMK AO2 SLP163 T01940128 10228 20194 53002
KIPT 262254Z 25007KT 10SM FEW050 OVC095 21/13 A3001 RMK AO2 SLP162 T02060133
KIPT 262154Z 25009KT 10SM OVC090 21/12 A3001 RMK AO2 SLP160 T02110122
KIPT 262054Z 26007KT 10SM SCT039 BKN070 OVC090 22/13 A3001 RMK AO2 SLP161 T02170128 58003
KIPT 261954Z 28007KT 10SM OVC085 22/12 A3001 RMK AO2 SLP160 T02220117
KIPT 261854Z 30006KT 10SM FEW042 OVC075 22/13 A3002 RMK AO2 SLP163 T02220128
KIPT 261754Z VRB04KT 10SM OVC080 22/12 A3002 RMK AO2 SLP163 T02220122 10239 20144 58007
KIPT 261654Z 22004KT 10SM FEW044 BKN085 23/12 A3003 RMK AO2 SLP166 T02280117
KIPT 261554Z VRB03KT 10SM SCT032 22/12 A3003 RMK AO2 SLP168 T02170122
KIPT 261454Z 24007KT 10SM FEW050 19/12 A3004 RMK AO2 SLP170 T01940117 53001
KIPT 261354Z 26009KT 10SM CLR 19/12 A3004